createdAt,value
2019-02-24T00:00:24.856Z,14.73
2019-02-24T00:02:56.593Z,16.30
2019-02-24T00:05:25.704Z,15.37
2019-02-24T00:07:55.652Z,16.07
2019-02-24T00:10:25.394Z,14.87
2019-02-24T00:12:55.712Z,15.30
2019-02-24T00:15:25.219Z,14.67
2019-02-24T00:17:57.288Z,13.73
2019-02-24T00:20:26.689Z,14.10
2019-02-24T00:22:57.049Z,12.90
2019-02-24T00:25:26.315Z,13.70
2019-02-24T00:27:56.050Z,13.07
2019-02-24T00:30:25.772Z,13.40
2019-02-24T00:32:55.338Z,13.03
2019-02-24T00:35:26.426Z,13.27
2019-02-24T00:37:57.708Z,15.07
2019-02-24T00:40:26.860Z,14.97
2019-02-24T00:42:56.311Z,13.73
2019-02-24T00:45:25.719Z,12.93
2019-02-24T00:47:55.251Z,12.23
2019-02-24T00:50:25.019Z,13.53
2019-02-24T00:52:56.198Z,13.77
2019-02-24T00:55:26.609Z,12.50
2019-02-24T00:57:55.804Z,11.73
2019-02-24T01:00:25.517Z,12.87
2019-02-24T01:02:55.178Z,12.17
2019-02-24T01:05:24.720Z,11.93
2019-02-24T01:07:54.336Z,12.10
2019-02-24T01:10:26.147Z,12.10
2019-02-24T01:12:56.442Z,11.87
2019-02-24T01:15:25.821Z,11.67
2019-02-24T01:17:55.209Z,12.33
2019-02-24T01:20:24.555Z,12.30
2019-02-24T01:22:53.807Z,12.57
2019-02-24T01:25:22.977Z,12.70
2019-02-24T01:27:53.101Z,12.60
2019-02-24T01:30:24.375Z,12.70
2019-02-24T01:32:53.562Z,12.13
2019-02-24T01:35:22.901Z,13.13
2019-02-24T01:37:52.253Z,12.30
2019-02-24T01:40:22.576Z,13.20
2019-02-24T01:42:51.817Z,11.97
2019-02-24T01:45:21.419Z,10.97
2019-02-24T01:47:53.634Z,11.50
2019-02-24T01:50:23.556Z,11.53
2019-02-24T01:52:54.643Z,11.90
2019-02-24T01:55:24.716Z,10.73
2019-02-24T01:57:54.968Z,11.23
2019-02-24T02:00:24.954Z,10.63
2019-02-24T02:02:56.064Z,11.50
2019-02-24T02:05:26.507Z,12.00
2019-02-24T02:07:55.957Z,11.07
2019-02-24T02:10:25.268Z,11.20
2019-02-24T02:12:54.543Z,11.40
2019-02-24T02:15:24.831Z,11.23
2019-02-24T02:17:54.183Z,10.57
2019-02-24T02:20:23.470Z,10.87
2019-02-24T02:22:55.502Z,10.47
2019-02-24T02:25:24.733Z,10.73
2019-02-24T02:27:54.636Z,9.93
2019-02-24T02:30:24.706Z,10.53
2019-02-24T02:32:54.839Z,10.10
2019-02-24T02:35:23.988Z,9.40
2019-02-24T02:37:53.302Z,9.80
2019-02-24T02:40:23.808Z,10.27
2019-02-24T02:42:53.507Z,10.23
2019-02-24T02:45:23.044Z,9.70
2019-02-24T02:47:53.359Z,9.83
2019-02-24T02:50:22.668Z,9.20
2019-02-24T02:52:52.285Z,9.07
2019-02-24T02:55:22.458Z,8.90
2019-02-24T02:57:54.218Z,9.63
2019-02-24T03:00:34.883Z,9.20
2019-02-24T03:03:04.092Z,8.77
2019-02-24T03:05:35.453Z,8.83
2019-02-24T03:08:07.982Z,9.73
2019-02-24T03:10:37.590Z,9.10
2019-02-24T03:13:07.403Z,9.20
2019-02-24T03:15:36.525Z,9.00
2019-02-24T03:18:06.028Z,9.30
2019-02-24T03:20:35.217Z,8.37
2019-02-24T03:23:05.543Z,9.40
2019-02-24T03:25:36.595Z,9.13
2019-02-24T03:28:06.082Z,8.30
2019-02-24T03:30:41.258Z,8.27
2019-02-24T03:33:11.002Z,8.70
2019-02-24T03:35:41.557Z,8.70
2019-02-24T03:38:12.658Z,8.60
2019-02-24T03:40:41.840Z,8.33
2019-02-24T03:43:11.498Z,9.27
2019-02-24T03:45:41.515Z,8.47
2019-02-24T03:48:11.064Z,8.43
2019-02-24T03:50:40.240Z,7.90
2019-02-24T03:53:10.339Z,7.93
2019-02-24T03:55:40.523Z,8.80
2019-02-24T03:58:10.671Z,7.77
2019-02-24T04:00:40.612Z,7.90
2019-02-24T04:03:10.654Z,7.43
2019-02-24T04:05:40.862Z,7.90
2019-02-24T04:08:11.002Z,8.43
2019-02-24T04:10:40.270Z,8.47
2019-02-24T04:13:10.455Z,8.27
2019-02-24T04:15:40.620Z,8.10
2019-02-24T04:18:10.032Z,8.10
2019-02-24T04:20:40.046Z,8.33
2019-02-24T04:23:09.575Z,7.10
2019-02-24T04:25:38.954Z,7.50
2019-02-24T04:28:09.054Z,7.33
2019-02-24T04:30:40.204Z,7.07
2019-02-24T04:33:10.896Z,7.67
2019-02-24T04:35:41.164Z,7.27
2019-02-24T04:38:11.331Z,7.23
2019-02-24T04:40:40.812Z,7.77
2019-02-24T04:43:10.899Z,6.97
2019-02-24T04:45:40.526Z,7.60
2019-02-24T04:48:12.385Z,7.43
2019-02-24T04:50:41.876Z,8.00
2019-02-24T04:53:11.514Z,6.73
2019-02-24T04:55:41.607Z,7.30
2019-02-24T04:58:11.917Z,6.87
2019-02-24T05:00:42.127Z,7.20
2019-02-24T05:03:11.335Z,8.20
2019-02-24T05:05:42.503Z,7.43
2019-02-24T05:08:11.597Z,7.47
2019-02-24T05:10:40.987Z,7.83
2019-02-24T05:13:10.496Z,6.97
2019-02-24T05:15:41.908Z,7.80
2019-02-24T05:18:11.056Z,8.30
2019-02-24T05:20:40.126Z,8.33
2019-02-24T05:23:11.554Z,7.80
2019-02-24T05:25:41.764Z,7.73
2019-02-24T05:28:11.212Z,7.27
2019-02-24T05:30:41.407Z,7.70
2019-02-24T05:33:10.531Z,7.97
2019-02-24T05:35:39.942Z,7.77
2019-02-24T05:38:09.300Z,7.73
2019-02-24T05:40:41.094Z,7.33
2019-02-24T05:43:11.472Z,8.20
2019-02-24T05:45:40.859Z,8.20
2019-02-24T05:48:10.417Z,7.87
2019-02-24T05:50:40.526Z,7.40
2019-02-24T05:53:09.943Z,7.37
2019-02-24T05:55:39.195Z,8.40
2019-02-24T05:58:11.379Z,6.83
2019-02-24T06:00:41.560Z,7.87
2019-02-24T06:03:11.042Z,8.33
2019-02-24T06:05:41.159Z,8.70
2019-02-24T06:08:10.858Z,8.00
2019-02-24T06:10:41.015Z,8.40
2019-02-24T06:13:10.163Z,8.33
2019-02-24T06:15:40.561Z,10.50
2019-02-24T06:18:11.630Z,8.60
2019-02-24T06:20:41.142Z,8.90
2019-02-24T06:23:10.473Z,8.37
2019-02-24T06:25:40.624Z,8.03
2019-02-24T06:28:09.850Z,7.83
2019-02-24T06:30:38.997Z,7.90
2019-02-24T06:33:08.499Z,8.57
2019-02-24T06:35:40.698Z,7.70
2019-02-24T06:38:10.564Z,7.43
2019-02-24T06:40:40.269Z,7.93
2019-02-24T06:43:09.683Z,8.20
2019-02-24T06:45:39.733Z,7.93
2019-02-24T06:48:09.007Z,8.03
2019-02-24T06:50:49.352Z,8.13
2019-02-24T06:53:18.702Z,7.60
2019-02-24T06:55:48.163Z,7.80
2019-02-24T06:58:18.608Z,7.90
2019-02-24T07:00:50.072Z,7.90
2019-02-24T07:03:20.597Z,7.17
2019-02-24T07:05:49.885Z,7.80
2019-02-24T07:08:19.285Z,7.93
2019-02-24T07:10:48.746Z,6.87
2019-02-24T07:13:19.021Z,8.07
2019-02-24T07:15:49.664Z,7.70
2019-02-24T07:18:20.590Z,7.93
2019-02-24T07:20:49.862Z,7.03
2019-02-24T07:23:19.858Z,8.40
2019-02-24T07:25:49.500Z,9.07
2019-02-24T07:28:19.838Z,8.83
2019-02-24T07:30:50.066Z,8.60
2019-02-24T07:33:19.626Z,7.90
2019-02-24T07:35:50.379Z,8.27
2019-02-24T07:38:20.575Z,8.37
2019-02-24T07:40:49.971Z,8.10
2019-02-24T07:43:20.392Z,8.13
2019-02-24T07:45:49.606Z,7.97
2019-02-24T07:48:18.906Z,8.03
2019-02-24T07:50:49.061Z,8.03
2019-02-24T07:53:20.763Z,7.33
2019-02-24T07:55:50.787Z,8.07
2019-02-24T07:58:20.927Z,7.90
2019-02-24T08:00:50.209Z,7.87
2019-02-24T08:03:19.482Z,7.37
2019-02-24T08:05:49.038Z,8.40
2019-02-24T08:08:19.490Z,8.50
2019-02-24T08:10:51.366Z,8.30
2019-02-24T08:13:21.679Z,8.07
2019-02-24T08:15:50.914Z,9.00
2019-02-24T08:18:20.589Z,8.67
2019-02-24T08:20:50.709Z,8.20
2019-02-24T08:23:20.044Z,8.27
2019-02-24T08:25:49.348Z,8.07
2019-02-24T08:28:21.513Z,8.33
2019-02-24T08:30:51.538Z,8.80
2019-02-24T08:33:20.862Z,8.90
2019-02-24T08:35:50.187Z,8.47
2019-02-24T08:38:19.439Z,8.57
2019-02-24T08:40:48.839Z,8.27
2019-02-24T08:43:19.188Z,9.90
2019-02-24T08:45:51.156Z,9.10
2019-02-24T08:48:21.771Z,9.77
2019-02-24T08:50:51.935Z,11.47
2019-02-24T08:53:21.525Z,10.50
2019-02-24T08:55:51.641Z,10.70
2019-02-24T08:58:21.563Z,11.60
2019-02-24T09:00:51.496Z,9.73
2019-02-24T09:03:23.432Z,9.90
2019-02-24T09:05:53.387Z,10.67
2019-02-24T09:08:22.637Z,10.03
2019-02-24T09:10:51.956Z,10.17
2019-02-24T09:13:21.717Z,9.77
2019-02-24T09:15:53.349Z,9.30
2019-02-24T09:18:25.174Z,9.27
2019-02-24T09:20:57.029Z,10.27
2019-02-24T09:23:26.287Z,9.47
2019-02-24T09:25:56.263Z,9.47
2019-02-24T09:28:25.815Z,8.87
2019-02-24T09:31:00.935Z,9.03
2019-02-24T09:33:28.294Z,9.07
2019-02-24T09:35:58.970Z,9.20
2019-02-24T09:38:29.092Z,8.37
2019-02-24T09:40:58.347Z,8.80
2019-02-24T09:43:27.549Z,8.73
2019-02-24T09:45:56.943Z,8.77
2019-02-24T09:48:26.209Z,8.57
2019-02-24T09:50:55.473Z,9.17
2019-02-24T09:53:27.275Z,8.20
2019-02-24T09:55:56.760Z,9.03
2019-02-24T09:58:26.131Z,9.33
2019-02-24T10:00:55.426Z,10.30
2019-02-24T10:03:24.703Z,8.50
2019-02-24T10:05:54.021Z,8.97
2019-02-24T10:08:23.202Z,8.53
2019-02-24T10:10:52.535Z,8.67
2019-02-24T10:13:22.769Z,9.58
2019-02-24T10:15:52.724Z,7.22
2019-02-24T10:18:21.967Z,7.25
2019-02-24T10:20:51.313Z,7.87
2019-02-24T10:23:20.642Z,8.90
2019-02-24T10:25:50.918Z,7.22
2019-02-24T10:28:20.389Z,7.15
2019-02-24T10:30:50.500Z,7.47
2019-02-24T10:33:20.664Z,7.15
2019-02-24T10:35:50.564Z,7.83
2019-02-24T10:38:20.031Z,7.50
2019-02-24T10:40:49.190Z,7.70
2019-02-24T10:43:18.504Z,7.47
2019-02-24T10:45:47.745Z,6.97
2019-02-24T10:48:17.016Z,7.17
2019-02-24T10:50:46.620Z,6.03
2019-02-24T10:53:18.460Z,6.80
2019-02-24T10:55:47.684Z,6.70
2019-02-24T10:58:17.107Z,6.87
2019-02-24T11:00:46.208Z,6.10
2019-02-24T11:03:15.504Z,6.10
2019-02-24T11:05:44.712Z,6.07
2019-02-24T11:08:14.536Z,6.43
2019-02-24T11:10:44.361Z,5.93
2019-02-24T11:13:14.667Z,6.27
2019-02-24T11:15:44.650Z,6.27
2019-02-24T11:18:14.058Z,6.10
2019-02-24T11:20:44.295Z,5.90
2019-02-24T11:23:13.704Z,6.50
2019-02-24T11:25:43.066Z,6.53
2019-02-24T11:28:17.240Z,6.10
2019-02-24T11:30:47.928Z,5.80
2019-02-24T11:33:18.134Z,5.40
2019-02-24T11:35:47.345Z,5.20
2019-02-24T11:38:16.955Z,5.53
2019-02-24T11:40:46.944Z,5.60
2019-02-24T11:43:16.721Z,5.27
2019-02-24T11:45:47.550Z,5.73
2019-02-24T11:48:17.726Z,5.33
2019-02-24T11:50:47.125Z,6.43
2019-02-24T11:53:17.327Z,5.73
2019-02-24T11:55:46.776Z,5.57
2019-02-24T11:58:15.966Z,5.83
2019-02-24T12:00:45.660Z,5.97
2019-02-24T12:03:17.186Z,5.60
2019-02-24T12:05:47.794Z,5.30
2019-02-24T12:08:18.188Z,5.73
2019-02-24T12:10:47.684Z,6.53
2019-02-24T12:13:17.624Z,5.63
2019-02-24T12:15:47.114Z,5.33
2019-02-24T12:18:16.496Z,5.60
2019-02-24T12:20:49.668Z,6.00
2019-02-24T12:23:18.912Z,4.53
2019-02-24T12:40:40.506Z,13.53
2019-02-24T13:17:53.913Z,8.08
2019-02-24T13:20:23.058Z,5.80
2019-02-24T13:22:53.194Z,4.93
2019-02-24T13:25:23.113Z,5.70
2019-02-24T13:27:53.184Z,5.20
2019-02-24T13:30:23.332Z,4.70
2019-02-24T13:52:47.670Z,5.43
2019-02-24T13:55:18.050Z,5.37
2019-02-24T13:57:48.749Z,5.93
2019-02-24T14:00:19.643Z,5.33
2019-02-24T14:02:49.890Z,5.77
2019-02-24T14:05:19.075Z,5.47
2019-02-24T14:07:48.949Z,4.60
2019-02-24T14:10:18.704Z,5.23
2019-02-24T14:12:48.871Z,4.80
2019-02-24T14:15:18.587Z,5.33
2019-02-24T14:17:48.310Z,5.27
2019-02-24T14:20:18.100Z,5.03
2019-02-24T14:22:47.646Z,4.90
2019-02-24T14:25:17.102Z,4.80
2019-02-24T14:27:47.306Z,5.00
2019-02-24T14:30:18.773Z,4.90
2019-02-24T14:32:48.969Z,5.07
2019-02-24T14:35:28.560Z,5.23
2019-02-24T14:38:00.618Z,5.00
2019-02-24T14:40:29.936Z,4.97
2019-02-24T14:43:00.100Z,5.83
2019-02-24T14:45:29.613Z,5.30
2019-02-24T14:47:59.771Z,5.03
2019-02-24T14:50:29.177Z,5.20
2019-02-24T14:52:58.718Z,4.70
2019-02-24T14:55:30.113Z,5.27
2019-02-24T14:58:00.791Z,5.23
2019-02-24T15:00:30.552Z,5.70
2019-02-24T15:03:02.667Z,6.13
2019-02-24T15:05:32.368Z,5.57
2019-02-24T15:08:06.108Z,5.67
2019-02-24T15:10:36.982Z,5.13
2019-02-24T15:13:06.352Z,5.50
2019-02-24T15:15:38.054Z,5.03
2019-02-24T15:18:08.221Z,5.83
2019-02-24T15:20:38.545Z,5.87
2019-02-24T15:23:09.398Z,4.53
2019-02-24T15:25:40.191Z,5.10
2019-02-24T15:28:10.339Z,5.03
2019-02-24T15:30:40.916Z,4.77
2019-02-24T15:33:10.427Z,5.17
2019-02-24T15:35:40.419Z,4.67
2019-02-24T15:38:12.404Z,5.07
2019-02-24T15:40:42.687Z,4.77
2019-02-24T15:43:13.877Z,5.17
2019-02-24T15:45:43.757Z,4.40
2019-02-24T15:48:13.082Z,4.37
2019-02-24T15:50:43.423Z,4.70
2019-02-24T15:53:14.836Z,4.70
2019-02-24T15:55:45.783Z,5.33
2019-02-24T15:58:27.630Z,5.33
2019-02-24T16:00:57.787Z,4.87
2019-02-24T16:03:27.950Z,4.60
2019-02-24T16:05:57.551Z,4.83
2019-02-24T16:08:27.555Z,4.47
2019-02-24T16:10:57.066Z,4.37
2019-02-24T16:13:27.531Z,4.33
2019-02-24T16:15:59.733Z,4.17
2019-02-24T16:18:30.799Z,4.47
2019-02-24T16:21:00.101Z,4.80
2019-02-24T16:23:29.513Z,4.93
2019-02-24T16:25:59.017Z,4.43
2019-02-24T16:28:29.101Z,4.87
2019-02-24T16:30:58.524Z,4.20
2019-02-24T16:33:30.714Z,4.70
2019-02-24T16:36:00.947Z,4.07
2019-02-24T16:38:30.424Z,4.47
2019-02-24T16:41:00.734Z,4.93
2019-02-24T16:43:30.876Z,5.37
2019-02-24T16:46:00.421Z,6.07
2019-02-24T16:48:29.742Z,6.57
2019-02-24T16:51:00.829Z,6.40
2019-02-24T16:53:33.824Z,5.90
2019-02-24T16:56:03.721Z,5.23
2019-02-24T16:58:33.218Z,5.00
2019-02-24T17:01:03.816Z,4.90
2019-02-24T17:03:33.598Z,4.63
2019-02-24T17:06:05.490Z,5.20
2019-02-24T17:08:35.617Z,5.53
2019-02-24T17:11:07.663Z,4.93
2019-02-24T17:13:37.135Z,4.77
2019-02-24T17:16:07.548Z,5.00
2019-02-24T17:18:39.247Z,4.90
2019-02-24T17:21:09.891Z,5.00
2019-02-24T17:23:39.170Z,5.10
2019-02-24T17:26:09.065Z,5.30
2019-02-24T17:28:39.157Z,5.07
2019-02-24T17:31:09.286Z,5.57
2019-02-24T17:33:38.581Z,5.73
2019-02-24T17:36:09.605Z,5.30
2019-02-24T17:38:39.132Z,5.07
2019-02-24T17:41:09.262Z,5.27
2019-02-24T17:43:39.439Z,5.43
2019-02-24T17:46:09.565Z,5.60
2019-02-24T17:48:39.296Z,5.50
2019-02-24T17:51:08.671Z,6.43
2019-02-24T17:53:39.942Z,5.87
2019-02-24T17:56:09.418Z,6.63
2019-02-24T17:58:39.597Z,5.80
2019-02-24T18:01:09.758Z,5.37
2019-02-24T18:03:39.920Z,5.70
2019-02-24T18:06:09.375Z,5.80
2019-02-24T18:08:39.435Z,6.73
2019-02-24T18:11:10.659Z,11.90
2019-02-24T18:13:40.770Z,8.60
2019-02-24T18:16:11.074Z,7.87
2019-02-24T18:18:41.095Z,7.40
2019-02-24T18:21:11.212Z,7.43
2019-02-24T18:23:40.591Z,7.90
2019-02-24T18:26:10.884Z,8.53
2019-02-24T18:28:42.650Z,9.77
2019-02-24T18:31:11.850Z,7.17
2019-02-24T18:33:48.070Z,7.27
2019-02-24T18:36:13.023Z,7.10
2019-02-24T18:38:43.101Z,7.77
2019-02-24T18:41:13.160Z,8.27
2019-02-24T18:43:43.713Z,7.30
2019-02-24T18:46:13.769Z,8.47
2019-02-24T18:48:43.007Z,8.17
2019-02-24T18:51:12.389Z,8.77
2019-02-24T18:53:41.792Z,7.93
2019-02-24T18:56:11.557Z,7.67
2019-02-24T18:58:41.372Z,7.93
2019-02-24T19:01:13.604Z,8.00
2019-02-24T19:03:43.803Z,6.97
2019-02-24T19:06:13.041Z,7.97
2019-02-24T19:08:42.485Z,7.43
2019-02-24T19:11:11.888Z,7.77
2019-02-24T19:13:42.121Z,6.60
2019-02-24T19:16:11.941Z,6.73
2019-02-24T19:18:44.751Z,7.10
2019-02-24T19:21:14.805Z,7.90
2019-02-24T19:23:45.038Z,8.87
2019-02-24T19:26:14.330Z,10.03
2019-02-24T19:28:43.948Z,10.10
2019-02-24T19:31:13.655Z,10.40
2019-02-24T19:33:43.380Z,10.00
2019-02-24T19:36:13.860Z,9.50
2019-02-24T19:38:43.801Z,9.93
2019-02-24T19:41:13.110Z,9.27
2019-02-24T19:43:42.335Z,7.90
2019-02-24T19:46:11.781Z,8.67
2019-02-24T19:48:42.212Z,7.73
2019-02-24T19:51:12.573Z,7.80
2019-02-24T19:53:43.616Z,7.83
2019-02-24T19:56:18.645Z,8.13
2019-02-24T19:58:49.129Z,7.90
2019-02-24T20:01:19.209Z,9.27
2019-02-24T20:03:50.470Z,10.97
2019-02-24T20:06:21.884Z,8.50
2019-02-24T20:08:51.819Z,9.13
2019-02-24T20:11:21.414Z,9.17
2019-02-24T20:13:51.005Z,9.40
2019-02-24T20:16:21.111Z,8.77
2019-02-24T20:18:51.436Z,10.25
2019-02-24T20:21:24.152Z,8.80
2019-02-24T20:23:54.571Z,8.30
2019-02-24T20:26:24.123Z,9.00
2019-02-24T20:28:53.920Z,10.30
2019-02-24T20:31:24.169Z,11.70
2019-02-24T20:33:53.617Z,9.73
2019-02-24T20:36:25.111Z,9.87
2019-02-24T20:38:57.181Z,9.40
2019-02-24T20:41:26.403Z,9.10
2019-02-24T20:43:56.609Z,8.80
2019-02-24T20:46:27.686Z,7.43
2019-02-24T20:49:05.066Z,8.47
2019-02-24T20:51:35.360Z,7.43
2019-02-24T20:54:04.542Z,7.53
2019-02-24T20:56:33.871Z,7.33
2019-02-24T20:59:03.301Z,6.70
2019-02-24T21:01:32.480Z,6.67
2019-02-24T21:04:03.775Z,6.43
2019-02-24T21:06:35.119Z,6.33
2019-02-24T21:09:07.602Z,7.13
2019-02-24T21:11:36.734Z,7.07
2019-02-24T21:14:06.232Z,6.30
2019-02-24T21:16:36.430Z,6.70
2019-02-24T21:19:07.593Z,5.80
2019-02-24T21:21:38.013Z,7.53
2019-02-24T21:24:07.245Z,7.47
2019-02-24T21:26:36.654Z,8.77
2019-02-24T21:29:06.463Z,8.70
2019-02-24T21:31:36.116Z,9.10
2019-02-24T21:34:05.480Z,8.97
2019-02-24T21:36:36.778Z,7.80
2019-02-24T21:39:09.151Z,7.40
2019-02-24T21:41:38.475Z,7.40
2019-02-24T21:44:08.473Z,7.23
2019-02-24T21:46:38.141Z,7.07
2019-02-24T21:49:07.625Z,7.40
2019-02-24T21:51:37.810Z,7.17
2019-02-24T21:54:09.865Z,7.90
2019-02-24T21:56:39.117Z,7.23
2019-02-24T21:59:09.455Z,7.70
2019-02-24T22:01:38.642Z,7.10
2019-02-24T22:04:09.638Z,6.70
2019-02-24T22:06:39.419Z,6.77
2019-02-24T22:09:12.281Z,7.03
2019-02-24T22:11:42.214Z,6.77
2019-02-24T22:14:11.487Z,7.20
2019-02-24T22:16:40.804Z,8.00
2019-02-24T22:19:10.928Z,7.20
2019-02-24T22:21:40.736Z,7.00
2019-02-24T22:24:12.743Z,6.70
2019-02-24T22:26:43.853Z,8.97
2019-02-24T22:29:13.332Z,8.03
2019-02-24T22:31:43.424Z,6.83
2019-02-24T22:34:13.262Z,7.67
2019-02-24T22:36:43.339Z,7.47
2019-02-24T22:39:12.542Z,7.53
2019-02-24T22:41:44.443Z,7.10
2019-02-24T22:44:13.969Z,7.50
2019-02-24T22:46:43.391Z,6.67
2019-02-24T22:49:12.518Z,6.47
2019-02-24T22:51:42.014Z,6.40
2019-02-24T22:54:12.184Z,7.23
2019-02-24T22:56:41.424Z,6.87
2019-02-24T22:59:14.333Z,6.50
2019-02-24T23:01:45.260Z,6.37
2019-02-24T23:04:14.663Z,6.53
2019-02-24T23:06:44.090Z,6.50
2019-02-24T23:09:15.196Z,6.70
2019-02-24T23:11:44.600Z,6.83
2019-02-24T23:14:16.385Z,6.30
2019-02-24T23:16:46.990Z,6.43
2019-02-24T23:19:16.192Z,6.73
2019-02-24T23:21:46.646Z,6.67
2019-02-24T23:24:15.839Z,7.17
2019-02-24T23:26:45.338Z,6.93
2019-02-24T23:29:14.401Z,7.30
2019-02-24T23:31:43.812Z,6.43
2019-02-24T23:34:14.727Z,6.77
2019-02-24T23:36:44.381Z,6.30
2019-02-24T23:39:14.825Z,6.87
2019-02-24T23:41:44.214Z,6.37
2019-02-24T23:44:13.795Z,6.47
2019-02-24T23:46:43.229Z,6.20
2019-02-24T23:49:12.606Z,6.57
2019-02-24T23:51:43.518Z,6.53
2019-02-24T23:54:14.167Z,6.50
2019-02-24T23:56:44.531Z,6.33
2019-02-24T23:59:13.844Z,6.27
